Time;durP1;ratioP1;P1;durP2;ratioP2;P2;SDS_P1;SDS_P2;PMS_P1;PMS_P2;Temp;Humidity;BMP_temperature;BMP_pressure;BME280_temperature;BME280_humidity;BME280_pressure;Samples;Min_cycle;Max_cycle;Signal;HPM_P1;HPM_P2
2022/10/20 00:00:22;;;;;;;25.42;7.63;;;;;;;19.56;69.43;98756.50;5093835;28;20028;-44
2022/10/20 00:02:48;;;;;;;25.40;8.30;;;;;;;19.47;68.87;98756.16;5092741;28;20027;-44
2022/10/20 00:05:14;;;;;;;17.08;6.70;;;;;;;19.29;69.68;98746.72;5092498;28;20119;-45
2022/10/20 00:07:40;;;;;;;28.13;7.63;;;;;;;19.26;70.52;98751.78;5093727;28;20025;-44
2022/10/20 00:10:06;;;;;;;17.85;6.80;;;;;;;19.42;69.82;98747.34;5092308;28;20020;-44
2022/10/20 00:12:31;;;;;;;29.45;7.88;;;;;;;19.48;69.13;98747.13;5093556;28;20016;-44
2022/10/20 00:14:57;;;;;;;23.65;6.70;;;;;;;19.50;69.03;98744.22;5092118;28;20508;-44
2022/10/20 00:17:23;;;;;;;25.40;7.03;;;;;;;19.44;69.32;98742.59;5092119;28;20115;-45
2022/10/20 00:19:49;;;;;;;25.92;6.88;;;;;;;19.36;69.57;98747.31;5092447;28;20410;-45
2022/10/20 00:22:15;;;;;;;27.15;6.80;;;;;;;19.40;69.65;98749.44;5091894;28;20044;-45
2022/10/20 00:24:41;;;;;;;21.65;6.82;;;;;;;19.43;69.43;98755.06;5093328;28;20024;-44
2022/10/20 00:27:07;;;;;;;31.95;7.43;;;;;;;19.48;69.32;98749.78;5091921;28;20113;-44
2022/10/20 00:29:32;;;;;;;23.73;7.50;;;;;;;19.55;69.06;98738.91;5093325;28;20127;-44
2022/10/20 00:31:58;;;;;;;22.00;6.80;;;;;;;19.59;69.63;98731.22;5093230;28;20035;-44
2022/10/20 00:34:24;;;;;;;20.10;6.35;;;;;;;19.67;69.06;98728.84;5093236;28;20643;-45
2022/10/20 00:36:49;;;;;;;18.10;6.82;;;;;;;19.74;68.49;98728.69;5091750;28;20035;-45
2022/10/20 00:39:15;;;;;;;22.30;7.68;;;;;;;19.72;68.71;98731.59;5091077;28;20025;-44
2022/10/20 00:41:41;;;;;;;32.20;11.00;;;;;;;19.70;69.04;98722.25;5091689;28;20147;-44
2022/10/20 00:44:44;;;;;;;33.42;9.23;;;;;;;19.71;68.41;98729.97;5092971;28;20020;-44
2022/10/20 00:47:33;;;;;;;23.42;7.28;;;;;;;19.67;68.69;98728.84;5091919;28;20036;-44
2022/10/20 00:50:06;;;;;;;25.92;8.18;;;;;;;19.66;68.62;98732.59;5092899;28;20528;-45
2022/10/20 00:52:33;;;;;;;36.90;11.63;;;;;;;19.77;68.83;98728.16;5092885;28;20027;-44
2022/10/20 00:55:00;;;;;;;18.55;6.13;;;;;;;19.88;68.09;98735.13;5092705;28;20028;-45
2022/10/20 00:57:27;;;;;;;27.75;6.80;;;;;;;19.85;67.58;98746.28;5091477;28;20407;-44
2022/10/20 00:59:53;;;;;;;19.45;6.53;;;;;;;19.82;67.85;98754.00;5092825;28;20016;-44
2022/10/20 01:02:19;;;;;;;27.70;8.07;;;;;;;19.85;68.37;98740.97;5092670;28;20498;-45
2022/10/20 01:04:45;;;;;;;20.90;6.90;;;;;;;19.82;68.46;98740.66;5092697;28;20525;-44
2022/10/20 01:07:11;;;;;;;20.98;7.07;;;;;;;19.77;68.51;98727.34;5091242;28;20030;-44
2022/10/20 01:09:37;;;;;;;26.40;8.23;;;;;;;19.77;68.59;98733.47;5091560;28;20031;-44
2022/10/20 01:12:18;;;;;;;33.85;7.45;;;;;;;19.76;68.51;98729.22;5092451;28;20035;-45
2022/10/20 01:15:28;;;;;;;23.20;6.93;;;;;;;19.82;68.43;98732.69;5091220;28;20028;-44
2022/10/20 01:18:15;;;;;;;31.13;9.05;;;;;;;19.83;68.68;98716.44;5073750;28;20036;-45
2022/10/20 01:21:03;;;;;;;28.02;7.57;;;;;;;19.86;68.01;98699.13;5090896;28;20048;-45
2022/10/20 01:24:16;;;;;;;23.42;7.70;;;;;;;19.88;68.48;98694.34;5092336;28;20614;-44
2022/10/20 01:27:09;;;;;;;18.52;7.47;;;;;;;19.88;68.30;98681.84;5092333;28;20425;-44
2022/10/20 01:30:00;;;;;;;21.10;6.93;;;;;;;19.90;68.47;98679.72;5091023;28;20040;-44
2022/10/20 01:32:35;;;;;;;26.88;8.00;;;;;;;19.96;68.31;98683.22;5090971;28;20035;-44
2022/10/20 01:35:10;;;;;;;23.20;7.40;;;;;;;20.03;68.07;98689.09;5092084;28;20024;-45
2022/10/20 01:37:50;;;;;;;28.65;7.22;;;;;;;20.10;67.99;98679.00;5090874;28;20056;-45
2022/10/20 01:40:31;;;;;;;24.00;7.25;;;;;;;20.16;67.74;98666.47;5090786;28;20028;-44
2022/10/20 01:43:01;;;;;;;20.65;6.20;;;;;;;20.14;67.64;98661.41;5092077;28;20020;-44
2022/10/20 01:45:31;;;;;;;20.30;7.20;;;;;;;20.09;67.85;98661.41;5090966;28;20557;-44
2022/10/20 01:47:59;;;;;;;29.80;7.45;;;;;;;20.22;67.91;98660.09;5092281;28;20099;-44
2022/10/20 01:50:25;;;;;;;28.60;6.75;;;;;;;20.55;67.69;98666.00;5090606;28;20030;-44
2022/10/20 01:53:01;;;;;;;25.17;6.70;;;;;;;20.61;66.01;98661.50;5090583;28;20026;-44
2022/10/20 01:55:27;;;;;;;26.85;6.47;;;;;;;20.57;65.59;98671.06;5090571;28;20024;-44
2022/10/20 01:57:56;;;;;;;20.05;6.22;;;;;;;20.48;65.90;98681.44;5091901;28;20093;-44
2022/10/20 02:00:22;;;;;;;21.17;7.03;;;;;;;20.44;65.67;98685.72;5091872;28;20529;-44
2022/10/20 02:02:53;;;;;;;24.55;6.97;;;;;;;20.43;65.84;98692.91;5073693;28;20027;-44
2022/10/20 02:05:45;;;;;;;23.23;6.30;;;;;;;20.54;65.58;98688.38;5090427;28;20024;-44
2022/10/20 02:08:28;;;;;;;21.33;6.65;;;;;;;20.45;65.21;98680.13;5091750;28;20024;-44
2022/10/20 02:10:59;;;;;;;23.65;6.07;;;;;;;20.46;65.35;98676.38;5091747;28;20036;-44
2022/10/20 02:13:28;;;;;;;32.80;9.00;;;;;;;20.40;65.71;98687.31;5091786;28;20028;-45
2022/10/20 02:15:59;;;;;;;25.50;6.75;;;;;;;20.29;66.12;98697.16;5090312;28;20031;-44
2022/10/20 02:18:30;;;;;;;31.17;7.05;;;;;;;20.52;66.02;98695.84;5091965;28;20462;-44
2022/10/20 02:20:59;;;;;;;24.38;7.03;;;;;;;20.73;65.38;98697.50;5091418;28;20456;-45
2022/10/20 02:23:26;;;;;;;31.77;6.65;;;;;;;20.98;65.73;98701.22;5090303;28;20026;-44
2022/10/20 02:25:54;;;;;;;21.85;6.43;;;;;;;21.19;64.96;98710.03;5091567;28;20090;-44
2022/10/20 02:28:21;;;;;;;25.05;6.88;;;;;;;21.24;63.77;98710.00;5091620;28;20019;-45
2022/10/20 02:30:47;;;;;;;22.73;7.43;;;;;;;21.06;63.81;98703.34;5090214;28;20426;-44
2022/10/20 02:33:15;;;;;;;37.40;15.05;;;;;;;20.97;64.49;98706.81;5090258;28;20028;-44
2022/10/20 02:35:49;;;;;;;26.38;8.63;;;;;;;20.97;64.36;98707.63;5091408;28;20020;-44
2022/10/20 02:38:15;;;;;;;25.52;7.78;;;;;;;20.85;64.19;98699.91;5091546;28;20035;-44
2022/10/20 02:40:41;;;;;;;27.88;8.05;;;;;;;20.72;64.66;98689.75;5091474;28;20024;-44
2022/10/20 02:43:06;;;;;;;23.25;7.88;;;;;;;20.74;64.86;98684.94;5090080;28;20383;-44
2022/10/20 02:45:32;;;;;;;26.38;7.53;;;;;;;20.60;65.10;98683.88;5073648;28;20028;-44
2022/10/20 02:47:58;;;;;;;22.80;8.43;;;;;;;20.41;66.66;98694.25;5090080;28;20451;-45
2022/10/20 02:50:24;;;;;;;32.15;9.32;;;;;;;20.22;67.05;98705.41;5091409;28;20042;-44
2022/10/20 02:52:49;;;;;;;27.25;7.45;;;;;;;20.14;67.07;98712.03;5091374;28;20020;-45
2022/10/20 02:55:15;;;;;;;24.33;7.93;;;;;;;20.10;67.43;98702.97;5091249;28;20031;-44
2022/10/20 02:57:41;;;;;;;30.20;6.18;;;;;;;20.12;67.54;98706.19;5090315;28;20027;-44
2022/10/20 03:00:07;;;;;;;35.85;8.20;;;;;;;20.31;67.21;98690.50;5091294;28;20090;-45
2022/10/20 03:02:33;;;;;;;25.60;7.78;;;;;;;20.44;67.06;98693.69;5093756;28;20027;-44
2022/10/20 03:04:59;;;;;;;25.65;7.30;;;;;;;20.46;66.60;98703.03;5093625;28;20482;-45
2022/10/20 03:07:25;;;;;;;20.75;7.65;;;;;;;20.43;67.20;98703.56;5093581;28;20032;-45
2022/10/20 03:09:50;;;;;;;17.65;7.30;;;;;;;20.40;67.23;98708.63;5093550;28;20499;-44
2022/10/20 03:12:16;;;;;;;23.38;7.55;;;;;;;20.43;67.04;98708.09;5093651;28;20032;-45
2022/10/20 03:14:42;;;;;;;28.25;7.85;;;;;;;20.38;66.88;98700.88;5093682;28;20050;-45
2022/10/20 03:17:08;;;;;;;19.40;7.28;;;;;;;20.28;67.24;98701.69;5094642;28;20027;-45
2022/10/20 03:19:34;;;;;;;25.27;7.55;;;;;;;20.16;67.34;98693.09;5094753;28;20020;-44
2022/10/20 03:21:59;;;;;;;28.05;8.02;;;;;;;20.02;68.17;98702.66;5094427;28;20115;-44
2022/10/20 03:24:25;;;;;;;22.20;7.75;;;;;;;19.91;68.76;98704.50;5094580;28;20026;-44
2022/10/20 03:26:51;;;;;;;20.65;8.38;;;;;;;19.83;69.36;98703.13;5093202;28;20517;-44
2022/10/20 03:29:17;;;;;;;23.90;7.82;;;;;;;19.86;69.70;98691.16;5094524;28;20016;-44
2022/10/20 03:31:43;;;;;;;21.05;8.68;;;;;;;19.91;69.10;98702.63;5093199;28;20444;-44
2022/10/20 03:34:08;;;;;;;20.50;9.43;;;;;;;19.83;69.62;98699.69;5094419;28;20489;-45
2022/10/20 03:36:34;;;;;;;28.90;9.32;;;;;;;19.85;70.76;98698.34;5094254;28;20051;-44
2022/10/20 03:39:00;;;;;;;30.45;10.15;;;;;;;19.73;71.32;98713.75;5094244;28;20020;-44
2022/10/20 03:41:25;;;;;;;25.02;8.43;;;;;;;19.60;71.95;98719.50;5092940;28;20024;-44
2022/10/20 03:43:51;;;;;;;28.13;10.30;;;;;;;19.38;74.08;98720.47;5092860;28;20067;-44
2022/10/20 03:46:17;;;;;;;26.45;10.15;;;;;;;19.13;75.17;98723.75;5094123;28;20028;-44
2022/10/20 03:48:42;;;;;;;28.60;9.80;;;;;;;18.97;76.59;98722.81;5094089;28;20024;-44
2022/10/20 03:51:11;;;;;;;29.38;11.32;;;;;;;18.93;76.73;98727.88;5092715;28;20035;-44
2022/10/20 03:53:36;;;;;;;29.35;9.80;;;;;;;18.94;76.69;98736.63;5093985;28;20048;-44
2022/10/20 03:56:11;;;;;;;31.08;9.23;;;;;;;18.89;76.84;98734.72;5092555;28;20060;-44
2022/10/20 03:58:37;;;;;;;24.45;9.07;;;;;;;18.98;76.89;98747.56;5093957;28;20028;-45
2022/10/20 04:01:05;;;;;;;27.02;8.93;;;;;;;19.12;76.69;98741.56;5092865;28;20525;-44
2022/10/20 04:03:30;;;;;;;28.92;9.15;;;;;;;19.29;75.50;98752.06;5092682;28;20016;-44
2022/10/20 04:05:56;;;;;;;26.17;10.52;;;;;;;19.37;75.23;98753.44;5093767;28;20028;-44
2022/10/20 04:08:22;;;;;;;32.13;9.07;;;;;;;19.47;74.66;98756.16;5093699;28;20020;-44
2022/10/20 04:10:47;;;;;;;29.17;9.00;;;;;;;19.56;73.63;98761.81;5092343;28;20028;-44
2022/10/20 04:13:13;;;;;;;36.05;9.00;;;;;;;19.62;73.07;98750.16;5091200;28;20020;-44
2022/10/20 04:15:39;;;;;;;20.13;7.90;;;;;;;19.67;72.65;98752.81;5092165;28;20032;-44
2022/10/20 04:18:04;;;;;;;24.10;7.50;;;;;;;19.70;72.34;98749.66;5093551;28;20530;-44
2022/10/20 04:20:30;;;;;;;31.58;7.50;;;;;;;19.75;72.30;98746.25;5093228;28;20040;-44
2022/10/20 04:22:56;;;;;;;26.70;9.15;;;;;;;19.78;72.02;98747.56;5092151;28;20024;-44
2022/10/20 04:25:21;;;;;;;23.75;8.75;;;;;;;19.75;71.68;98744.38;5093433;28;20509;-44
2022/10/20 04:27:47;;;;;;;19.45;6.65;;;;;;;19.72;72.23;98750.22;5092277;28;20123;-44
2022/10/20 04:30:13;;;;;;;22.67;7.03;;;;;;;19.72;72.28;98755.56;5092032;28;20531;-44
2022/10/20 04:32:38;;;;;;;22.05;7.55;;;;;;;19.74;72.00;98749.97;5091905;28;20024;-44
2022/10/20 04:35:04;;;;;;;21.33;7.22;;;;;;;19.77;72.10;98756.63;5093116;28;20039;-44
2022/10/20 04:37:30;;;;;;;22.90;7.35;;;;;;;19.79;71.89;98749.19;5092204;28;20032;-44
2022/10/20 04:39:56;;;;;;;24.30;8.40;;;;;;;19.82;71.71;98754.00;5093375;28;20496;-44
2022/10/20 04:42:22;;;;;;;27.67;8.35;;;;;;;19.84;71.86;98743.88;5093031;28;20412;-44
2022/10/20 04:44:48;;;;;;;27.67;8.38;;;;;;;19.89;71.58;98736.72;5091712;28;20035;-44
2022/10/20 04:47:14;;;;;;;18.48;8.10;;;;;;;19.87;71.93;98733.50;5093277;28;20028;-44
2022/10/20 04:49:40;;;;;;;15.88;7.45;;;;;;;19.85;72.83;98740.97;5092925;28;20432;-44
2022/10/20 04:52:06;;;;;;;20.63;7.93;;;;;;;19.62;74.04;98726.19;5091688;28;20028;-44
2022/10/20 04:54:31;;;;;;;20.95;7.78;;;;;;;19.39;74.85;98734.56;5091580;28;20030;-44
2022/10/20 04:56:57;;;;;;;30.02;10.88;;;;;;;19.19;75.87;98728.03;5091422;28;20024;-45
2022/10/20 04:59:23;;;;;;;21.77;9.40;;;;;;;19.11;76.45;98725.84;5091504;28;20020;-44
2022/10/20 05:01:49;;;;;;;24.25;7.90;;;;;;;19.07;76.50;98728.22;5091378;28;20024;-45
2022/10/20 05:04:20;;;;;;;26.73;8.50;;;;;;;19.03;77.01;98739.63;5092707;28;20081;-44
2022/10/20 05:06:47;;;;;;;20.95;9.02;;;;;;;18.99;77.56;98738.53;5092689;28;20032;-45
2022/10/20 05:09:14;;;;;;;30.10;8.93;;;;;;;18.90;77.89;98738.19;5091288;28;20035;-44
2022/10/20 05:11:41;;;;;;;30.02;9.73;;;;;;;18.76;78.58;98727.16;5092493;28;20035;-44
2022/10/20 05:14:07;;;;;;;26.80;8.90;;;;;;;18.67;79.27;98749.91;5092571;28;20457;-44
2022/10/20 05:16:33;;;;;;;27.50;9.38;;;;;;;18.63;79.67;98740.84;5092346;28;20056;-44
2022/10/20 05:18:59;;;;;;;24.50;9.90;;;;;;;18.60;79.98;98759.97;5091104;28;20438;-44
2022/10/20 05:21:27;;;;;;;29.10;8.60;;;;;;;18.58;80.29;98754.09;5090856;28;20044;-45
2022/10/20 05:24:02;;;;;;;25.42;11.00;;;;;;;18.52;80.71;98751.38;5074293;28;20146;-44
2022/10/20 05:26:34;;;;;;;22.40;9.88;;;;;;;18.50;81.03;98742.84;5091048;28;20032;-44
2022/10/20 05:29:02;;;;;;;27.63;10.38;;;;;;;18.48;81.24;98744.16;5092250;28;20028;-44
2022/10/20 05:31:28;;;;;;;27.55;12.07;;;;;;;18.44;81.69;98738.53;5090870;28;20516;-45
2022/10/20 05:33:55;;;;;;;33.65;11.70;;;;;;;18.38;82.06;98736.88;5090916;28;20055;-45
2022/10/20 05:36:24;;;;;;;31.10;12.30;;;;;;;18.34;82.57;98746.41;5092087;28;20081;-45
2022/10/20 05:38:52;;;;;;;27.95;9.52;;;;;;;18.27;83.08;98751.91;5090947;28;20020;-44
2022/10/20 05:41:22;;;;;;;30.30;12.48;;;;;;;18.21;83.67;98754.75;5090800;28;20162;-44
2022/10/20 05:43:55;;;;;;;31.90;13.18;;;;;;;18.17;83.92;98744.63;5090801;28;20493;-44
2022/10/20 05:46:23;;;;;;;29.67;11.95;;;;;;;18.14;84.61;98739.81;5092117;28;20032;-45
2022/10/20 05:48:53;;;;;;;23.00;11.43;;;;;;;18.14;84.62;98741.66;5092047;28;20020;-44
2022/10/20 05:51:23;;;;;;;29.40;12.43;;;;;;;18.09;85.01;98761.00;5091926;28;20038;-45
2022/10/20 05:53:49;;;;;;;31.95;10.77;;;;;;;17.97;84.87;98760.34;5092125;28;20363;-44
2022/10/20 05:56:19;;;;;;;22.08;12.10;;;;;;;17.84;85.14;98755.38;5090488;28;20036;-44
2022/10/20 05:58:46;;;;;;;28.50;14.02;;;;;;;17.77;86.48;98758.97;5091919;28;20021;-45
2022/10/20 06:01:19;;;;;;;29.05;12.63;;;;;;;17.75;86.82;98753.13;5091846;28;20067;-45
2022/10/20 06:03:56;;;;;;;26.77;12.50;;;;;;;17.80;87.35;98748.91;5092097;28;20074;-44
2022/10/20 06:06:31;;;;;;;30.45;13.45;;;;;;;17.80;87.32;98756.88;5091894;28;20134;-44
2022/10/20 06:08:59;;;;;;;29.50;11.60;;;;;;;17.78;87.76;98759.78;5091905;28;20027;-45
2022/10/20 06:11:25;;;;;;;29.17;15.60;;;;;;;17.85;88.11;98756.97;5091710;28;20021;-44
2022/10/20 06:13:52;;;;;;;29.02;12.32;;;;;;;17.91;87.96;98763.97;5091822;28;20143;-44
2022/10/20 06:16:21;;;;;;;49.47;35.17;;;;;;;17.99;87.51;98760.06;5090322;28;20085;-45
2022/10/20 06:18:47;;;;;;;28.33;16.88;;;;;;;18.04;86.78;98760.94;5091648;28;20023;-44
2022/10/20 06:21:27;;;;;;;30.40;16.50;;;;;;;18.03;86.76;98759.34;5091409;28;20058;-44
2022/10/20 06:23:53;;;;;;;29.70;14.30;;;;;;;18.02;87.44;98770.19;5090388;28;20148;-45
2022/10/20 06:26:22;;;;;;;36.70;14.10;;;;;;;17.93;87.56;98757.34;5091589;28;20102;-44
2022/10/20 06:28:53;;;;;;;31.77;13.20;;;;;;;17.89;88.56;98763.41;5090559;28;20024;-44
2022/10/20 06:31:21;;;;;;;36.65;13.85;;;;;;;17.88;88.59;98762.59;5090547;28;20026;-44
2022/10/20 06:33:48;;;;;;;35.28;14.25;;;;;;;17.84;88.75;98771.31;5091490;28;20032;-44
2022/10/20 06:36:16;;;;;;;33.03;15.13;;;;;;;17.86;89.05;98775.31;5090651;28;20020;-44
2022/10/20 06:38:43;;;;;;;26.10;12.13;;;;;;;17.94;89.13;98776.75;5095533;28;20028;-44
2022/10/20 06:41:15;;;;;;;29.92;11.82;;;;;;;17.99;89.05;98770.69;5094096;28;20081;-44
2022/10/20 06:43:41;;;;;;;24.23;11.68;;;;;;;17.94;88.32;98772.22;5094284;28;20032;-44
2022/10/20 06:46:11;;;;;;;29.92;12.68;;;;;;;17.93;88.64;98762.66;5077106;28;20397;-44
2022/10/20 06:48:37;;;;;;;31.23;12.73;;;;;;;17.99;89.14;98760.06;5094221;28;20020;-44
2022/10/20 06:51:09;;;;;;;43.40;14.23;;;;;;;18.00;89.14;98759.81;5094211;28;20073;-44
2022/10/20 06:53:36;;;;;;;24.13;11.75;;;;;;;18.03;88.60;98764.66;5093939;28;20404;-44
2022/10/20 06:56:07;;;;;;;23.38;11.02;;;;;;;18.07;88.36;98759.63;5093710;28;20032;-44
2022/10/20 06:58:36;;;;;;;24.95;11.77;;;;;;;18.13;88.46;98761.31;5093843;28;20055;-44
2022/10/20 07:01:05;;;;;;;27.58;10.40;;;;;;;18.21;87.42;98763.53;5095085;28;20066;-44
2022/10/20 07:03:32;;;;;;;27.58;10.52;;;;;;;18.28;86.00;98758.81;5095033;28;20101;-44
2022/10/20 07:05:59;;;;;;;29.73;10.75;;;;;;;18.28;84.88;98763.34;5093593;28;20078;-44
2022/10/20 07:08:28;;;;;;;31.73;14.18;;;;;;;18.29;84.21;98763.09;5094947;28;20025;-44
2022/10/20 07:11:18;;;;;;;26.70;10.65;;;;;;;18.28;84.42;98779.28;5094924;28;20035;-44
2022/10/20 07:13:44;;;;;;;35.72;11.70;;;;;;;18.29;83.13;98763.09;5093593;28;20028;-44
2022/10/20 07:16:14;;;;;;;28.25;10.68;;;;;;;18.30;83.26;98774.53;5094607;28;20099;-44
2022/10/20 07:18:40;;;;;;;33.13;9.77;;;;;;;18.28;84.12;98784.59;5093707;28;20130;-44
2022/10/20 07:21:11;;;;;;;19.65;10.23;;;;;;;18.25;84.77;98780.59;5093088;28;20125;-44
2022/10/20 07:23:37;;;;;;;34.72;11.73;;;;;;;18.27;83.62;98782.97;5093333;28;20024;-44
2022/10/20 07:26:14;;;;;;;21.65;9.55;;;;;;;18.33;83.00;98781.97;5094552;28;20028;-44
2022/10/20 07:28:42;;;;;;;30.75;9.82;;;;;;;18.40;82.75;98782.59;5093291;28;20028;-44
2022/10/20 07:31:12;;;;;;;25.65;9.45;;;;;;;18.41;82.90;98775.44;5093504;28;20397;-44
2022/10/20 07:33:37;;;;;;;25.45;10.00;;;;;;;18.38;82.66;98786.56;5093116;28;20020;-45
2022/10/20 07:36:25;;;;;;;28.88;8.25;;;;;;;18.21;83.78;98779.47;5094327;28;20020;-45
2022/10/20 07:38:54;;;;;;;28.05;9.65;;;;;;;18.17;83.28;98773.84;5094404;28;20478;-45
2022/10/20 07:41:20;;;;;;;23.15;9.20;;;;;;;18.26;82.91;98762.78;5094548;28;20028;-44
2022/10/20 07:43:46;;;;;;;20.85;8.45;;;;;;;18.31;82.48;98747.72;5094273;28;20520;-45
2022/10/20 07:46:13;;;;;;;29.58;11.35;;;;;;;18.32;84.00;98724.59;5094490;28;20036;-44
2022/10/20 07:48:39;;;;;;;28.25;11.07;;;;;;;18.34;84.24;98667.50;5092650;28;20055;-44
2022/10/20 07:51:23;;;;;;;26.15;12.50;;;;;;;18.28;84.82;98625.19;5093060;28;20543;-44
2022/10/20 07:53:50;;;;;;;34.55;12.60;;;;;;;18.08;85.05;98591.28;5094094;28;20486;-43
2022/10/20 07:56:16;;;;;;;33.55;11.93;;;;;;;17.86;86.37;98576.19;5093831;28;20047;-43
2022/10/20 07:58:43;;;;;;;29.50;12.43;;;;;;;17.74;87.52;98610.81;5093928;28;20045;-43
2022/10/20 08:01:09;;;;;;;28.27;11.75;;;;;;;17.69;89.02;98599.34;5092578;28;20036;-43
2022/10/20 08:03:35;;;;;;;24.33;10.50;;;;;;;17.71;88.58;98626.44;5092514;28;20016;-43
2022/10/20 08:06:01;;;;;;;31.48;11.95;;;;;;;17.74;87.98;98612.66;5093797;28;20035;-44
2022/10/20 08:08:26;;;;;;;31.00;11.13;;;;;;;17.69;87.31;98602.81;5092473;28;20016;-44
2022/10/20 08:10:52;;;;;;;24.02;10.88;;;;;;;17.68;87.70;98621.63;5093693;28;20505;-44
2022/10/20 08:13:18;;;;;;;27.50;8.90;;;;;;;17.72;88.86;98649.28;5092424;28;20069;-44
2022/10/20 08:15:44;;;;;;;27.48;12.68;;;;;;;17.76;89.08;98639.75;5092206;28;20028;-44
2022/10/20 08:18:10;;;;;;;21.13;11.18;;;;;;;17.89;89.74;98692.53;5092249;28;20469;-44
2022/10/20 08:20:35;;;;;;;23.88;10.35;;;;;;;17.92;89.82;98754.94;5091942;28;20102;-44
2022/10/20 08:23:01;;;;;;;28.80;10.45;;;;;;;17.95;90.32;98755.25;5092545;28;20093;-44
2022/10/20 08:25:27;;;;;;;37.45;10.98;;;;;;;18.19;90.98;98747.03;5092082;28;20485;-44
2022/10/20 08:27:52;;;;;;;43.90;9.75;;;;;;;18.56;90.70;98736.53;5092316;28;20024;-44
2022/10/20 08:30:18;;;;;;;36.88;10.05;;;;;;;18.99;89.57;98727.88;5092055;28;20027;-44
2022/10/20 08:32:44;;;;;;;23.55;7.30;;;;;;;19.18;88.07;98718.47;5093261;28;20028;-44
2022/10/20 08:35:10;;;;;;;36.60;8.27;;;;;;;19.24;86.89;98720.09;5093145;28;20400;-44
2022/10/20 08:37:35;;;;;;;26.38;7.60;;;;;;;19.29;84.53;98724.66;5093405;28;20456;-44
2022/10/20 08:40:05;;;;;;;21.33;7.15;;;;;;;19.33;84.06;98723.88;5093120;28;20052;-44
2022/10/20 08:42:39;;;;;;;33.78;8.57;;;;;;;19.41;82.66;98716.47;5093038;28;20055;-44
2022/10/20 08:45:05;;;;;;;16.92;7.70;;;;;;;19.47;81.75;98710.91;5091786;28;20032;-44
2022/10/20 08:47:35;;;;;;;24.25;7.70;;;;;;;19.48;81.29;98719.72;5075072;28;20051;-44
2022/10/20 08:50:08;;;;;;;24.15;7.85;;;;;;;19.55;81.14;98725.59;5093279;28;20052;-44
2022/10/20 08:52:34;;;;;;;25.05;7.63;;;;;;;19.69;81.19;98731.28;5092876;28;20111;-44
2022/10/20 08:55:02;;;;;;;17.67;6.82;;;;;;;19.80;78.82;98727.63;5092746;28;20043;-44
2022/10/20 08:57:31;;;;;;;22.45;6.57;;;;;;;19.93;77.88;98727.16;5091466;28;20024;-44
2022/10/20 09:00:17;;;;;;;18.63;7.35;;;;;;;20.06;76.52;98720.53;5090855;28;20082;-44
2022/10/20 09:02:44;;;;;;;17.98;6.50;;;;;;;20.15;76.39;98736.81;5091734;28;20028;-44
2022/10/20 09:05:12;;;;;;;23.08;8.40;;;;;;;20.27;76.46;98723.28;5091631;28;20047;-44
2022/10/20 09:07:38;;;;;;;14.93;7.15;;;;;;;20.46;72.05;98716.34;5092532;28;20378;-44
2022/10/20 09:10:13;;;;;;;13.93;7.78;;;;;;;20.71;71.35;98704.16;5091334;28;20031;-45
2022/10/20 09:12:41;;;;;;;18.20;7.25;;;;;;;20.96;70.68;98698.03;5091295;28;20557;-45
2022/10/20 09:15:12;;;;;;;17.23;6.55;;;;;;;21.26;69.71;98707.06;5091394;28;20394;-44
2022/10/20 09:18:03;;;;;;;18.45;6.22;;;;;;;21.56;70.24;98714.22;5091069;28;20054;-44
2022/10/20 09:20:43;;;;;;;14.52;6.07;;;;;;;21.81;68.27;98710.69;5090361;28;20086;-45
2022/10/20 09:23:18;;;;;;;18.55;7.45;;;;;;;21.95;68.32;98710.88;5092384;28;20131;-44
2022/10/20 09:25:45;;;;;;;19.70;7.10;;;;;;;22.04;64.94;98703.91;5092351;28;20063;-44
2022/10/20 09:28:22;;;;;;;15.15;6.43;;;;;;;22.11;65.17;98703.59;5092276;28;20031;-45
2022/10/20 09:30:48;;;;;;;16.65;6.45;;;;;;;22.09;65.19;98706.56;5090943;28;20096;-44
2022/10/20 09:33:32;;;;;;;24.67;7.45;;;;;;;22.11;67.45;98709.75;5092487;28;20112;-44
2022/10/20 09:36:13;;;;;;;22.87;7.60;;;;;;;22.10;66.35;98704.69;5092206;28;20028;-44
2022/10/20 09:38:43;;;;;;;20.65;6.88;;;;;;;22.07;64.81;98697.19;5092168;28;20254;-44
2022/10/20 09:41:17;;;;;;;24.90;6.88;;;;;;;21.98;64.20;98701.53;5090858;28;20036;-45
2022/10/20 09:43:54;;;;;;;17.38;6.63;;;;;;;22.03;64.98;98690.81;5092160;28;20513;-45
2022/10/20 09:46:24;;;;;;;21.23;6.65;;;;;;;22.31;64.64;98683.97;5090764;28;20034;-44
2022/10/20 09:48:50;;;;;;;20.63;6.22;;;;;;;22.56;63.26;98692.91;5092016;28;20020;-44
2022/10/20 09:51:21;;;;;;;23.02;7.63;;;;;;;22.79;62.05;98681.50;5090696;28;20081;-44
2022/10/20 09:53:59;;;;;;;28.00;9.15;;;;;;;23.03;61.14;98683.47;5090662;28;20040;-45
2022/10/20 09:56:31;;;;;;;23.13;8.00;;;;;;;23.11;59.95;98682.84;5091886;28;20063;-45
2022/10/20 09:59:00;;;;;;;24.23;7.15;;;;;;;22.98;58.84;98676.25;5091957;28;20024;-45
2022/10/20 10:01:26;;;;;;;21.02;6.47;;;;;;;22.78;58.35;98677.22;5090526;28;20028;-44
2022/10/20 10:03:58;;;;;;;26.40;7.00;;;;;;;22.49;58.76;98677.19;5090554;28;20397;-44
2022/10/20 10:06:36;;;;;;;17.98;6.18;;;;;;;22.21;59.40;98671.44;5091841;28;20032;-45
2022/10/20 10:09:21;;;;;;;14.55;5.78;;;;;;;22.01;59.26;98675.03;5090474;28;20031;-44
2022/10/20 10:11:55;;;;;;;;;;;;;;;21.90;58.58;98674.28;5092728;28;20425;-44
2022/10/20 10:14:22;;;;;;;13.77;5.80;;;;;;;21.71;59.61;98668.78;5096025;28;19957;-44
2022/10/20 10:16:48;;;;;;;12.25;6.90;;;;;;;21.61;60.17;98674.16;5094524;28;20023;-44
2022/10/20 10:19:21;;;;;;;20.02;6.50;;;;;;;21.56;59.26;98666.16;5095856;28;20020;-44
2022/10/20 10:21:56;;;;;;;17.85;5.90;;;;;;;21.49;59.32;98654.97;5095624;28;20065;-44
2022/10/20 10:24:32;;;;;;;16.08;5.05;;;;;;;21.52;58.83;98668.56;5095847;28;20058;-44
2022/10/20 10:26:58;;;;;;;18.20;6.15;;;;;;;21.56;58.62;98666.16;5094362;28;20509;-44
2022/10/20 10:29:27;;;;;;;16.83;5.47;;;;;;;21.59;58.23;98662.97;5094405;28;20024;-44
2022/10/20 10:31:59;;;;;;;17.52;6.40;;;;;;;21.68;57.63;98655.16;5095589;28;20020;-45
2022/10/20 10:34:41;;;;;;;15.98;5.40;;;;;;;21.76;56.70;98665.28;5094617;28;20513;-45
2022/10/20 10:37:11;;;;;;;14.70;6.03;;;;;;;21.78;57.18;98657.00;5095543;28;20023;-44
2022/10/20 10:39:37;;;;;;;16.27;5.72;;;;;;;21.81;56.15;98667.94;5094552;28;20028;-44
2022/10/20 10:42:36;;;;;;;13.43;5.45;;;;;;;21.73;56.95;98666.63;5095483;28;20019;-44
2022/10/20 10:45:11;;;;;;;14.80;6.13;;;;;;;21.72;56.85;98646.31;5094117;28;20043;-44
2022/10/20 10:47:40;;;;;;;11.73;5.70;;;;;;;21.76;57.12;98653.81;5095430;28;20094;-45
2022/10/20 10:50:43;;;;;;;16.73;6.30;;;;;;;21.80;55.65;98644.97;5095260;28;20032;-44
2022/10/20 10:53:18;;;;;;;14.05;6.45;;;;;;;21.72;56.74;98630.31;5095335;28;20024;-44
2022/10/20 10:55:57;;;;;;;16.02;5.80;;;;;;;21.80;56.94;98665.53;5095104;28;20508;-44
2022/10/20 10:58:52;;;;;;;17.10;6.28;;;;;;;21.85;56.43;98669.00;5094296;28;20370;-44
2022/10/20 11:01:50;;;;;;;20.38;6.38;;;;;;;21.82;55.96;98666.06;5095128;28;20082;-44
2022/10/20 11:04:37;;;;;;;15.05;6.68;;;;;;;21.84;56.10;98655.91;5093786;28;20024;-44
2022/10/20 11:07:40;;;;;;;16.23;6.90;;;;;;;21.90;56.28;98670.84;5095059;28;20095;-44
2022/10/20 11:10:14;;;;;;;18.00;6.88;;;;;;;22.05;55.85;98653.91;5094012;28;20035;-44
2022/10/20 11:12:40;;;;;;;13.38;6.78;;;;;;;21.98;55.28;98656.91;5093934;28;20064;-44
2022/10/20 11:15:43;;;;;;;14.00;6.28;;;;;;;21.99;55.82;98649.66;5094770;28;20548;-44
2022/10/20 11:18:51;;;;;;;17.92;6.22;;;;;;;22.12;55.53;98647.19;5093438;28;20054;-45
2022/10/20 11:21:50;;;;;;;18.60;6.43;;;;;;;22.13;55.28;98639.97;5093189;28;20105;-44
2022/10/20 11:24:46;;;;;;;16.92;6.85;;;;;;;22.13;55.63;98635.44;5094503;28;20040;-44
2022/10/20 11:27:18;;;;;;;14.68;6.05;;;;;;;22.14;55.25;98639.69;5094564;28;20016;-44
2022/10/20 11:30:03;;;;;;;16.15;6.55;;;;;;;22.13;55.29;98634.59;5094624;28;20474;-44
2022/10/20 11:32:37;;;;;;;12.38;5.60;;;;;;;22.14;55.48;98641.56;5094543;28;20111;-45
2022/10/20 11:35:13;;;;;;;10.50;5.63;;;;;;;22.25;55.17;98637.75;5094386;28;20031;-45
2022/10/20 11:37:51;;;;;;;13.35;5.85;;;;;;;22.37;54.72;98636.63;5094494;28;20436;-44
2022/10/20 11:40:28;;;;;;;15.60;6.30;;;;;;;22.34;54.00;98643.34;5094346;28;20024;-45